createdAt,value
2023-04-25T00:02:15.321Z,12.00
2023-04-25T00:04:42.209Z,12.10
2023-04-25T00:07:09.249Z,10.80
2023-04-25T00:09:36.044Z,10.80
2023-04-25T00:12:02.787Z,11.10
2023-04-25T00:14:30.753Z,10.80
2023-04-25T00:16:57.493Z,10.70
2023-04-25T00:19:24.262Z,10.70
2023-04-25T00:21:51.072Z,11.80
2023-04-25T00:24:17.859Z,10.70
2023-04-25T00:26:44.826Z,10.60
2023-04-25T00:29:11.614Z,10.60
2023-04-25T00:31:38.430Z,12.30
2023-04-25T00:34:05.523Z,11.80
2023-04-25T00:36:32.410Z,10.50
2023-04-25T00:38:59.203Z,10.50
2023-04-25T00:41:27.963Z,10.40
2023-04-25T00:43:56.084Z,10.40
2023-04-25T00:46:23.217Z,10.40
2023-04-25T00:48:50.141Z,10.40
2023-04-25T00:51:21.997Z,10.30
2023-04-25T00:53:52.482Z,10.30
2023-04-25T00:56:19.705Z,11.40
2023-04-25T00:58:46.735Z,10.30
2023-04-25T01:01:14.402Z,10.30
2023-04-25T01:03:42.182Z,10.30
2023-04-25T01:06:10.906Z,10.80
2023-04-25T01:08:39.956Z,10.30
2023-04-25T01:11:07.837Z,10.30
2023-04-25T01:13:35.781Z,10.30
2023-04-25T01:16:03.439Z,10.30
2023-04-25T01:18:30.324Z,10.20
2023-04-25T01:20:58.332Z,10.20
2023-04-25T01:23:25.178Z,10.20
2023-04-25T01:25:52.328Z,11.90
2023-04-25T01:28:19.312Z,11.90
2023-04-25T01:30:47.150Z,10.10
2023-04-25T01:33:16.544Z,10.10
2023-04-25T01:35:43.364Z,10.10
2023-04-25T01:38:10.089Z,11.80
2023-04-25T01:40:41.083Z,10.10
2023-04-25T01:43:11.957Z,10.10
2023-04-25T01:45:42.312Z,10.10
2023-04-25T01:48:10.982Z,10.10
2023-04-25T01:50:39.451Z,10.20
2023-04-25T01:53:06.666Z,10.10
2023-04-25T01:55:33.406Z,10.10
2023-04-25T01:58:01.516Z,10.10
2023-04-25T02:00:28.244Z,10.00
2023-04-25T02:02:55.059Z,10.00
2023-04-25T02:05:21.833Z,10.00
2023-04-25T02:07:48.897Z,9.90
2023-04-25T02:10:16.003Z,9.90
2023-04-25T02:12:42.801Z,9.90
2023-04-25T02:15:10.099Z,9.90
2023-04-25T02:17:37.139Z,9.80
2023-04-25T02:20:04.260Z,9.70
2023-04-25T02:22:31.614Z,9.80
2023-04-25T02:24:58.984Z,9.80
2023-04-25T02:27:25.891Z,9.70
2023-04-25T02:29:52.958Z,9.70
2023-04-25T02:32:19.690Z,10.60
2023-04-25T02:34:46.499Z,9.70
2023-04-25T02:37:13.312Z,9.70
2023-04-25T02:39:40.039Z,9.70
2023-04-25T02:42:06.789Z,9.70
2023-04-25T02:44:33.481Z,9.60
2023-04-25T02:47:00.254Z,10.80
2023-04-25T02:49:27.060Z,9.60
2023-04-25T02:51:53.766Z,9.60
2023-04-25T02:54:20.477Z,9.60
2023-04-25T02:56:47.185Z,9.60
2023-04-25T02:59:14.106Z,9.60
2023-04-25T03:01:40.802Z,9.60
2023-04-25T03:04:07.584Z,9.60
2023-04-25T03:06:34.318Z,9.60
2023-04-25T03:09:01.147Z,10.40
2023-04-25T03:11:27.950Z,9.50
2023-04-25T03:13:54.618Z,9.50
2023-04-25T03:16:21.932Z,9.50
2023-04-25T03:18:48.977Z,10.50
2023-04-25T03:21:15.799Z,9.40
2023-04-25T03:23:42.539Z,10.50
2023-04-25T03:26:09.324Z,9.30
2023-04-25T03:28:36.007Z,10.90
2023-04-25T03:31:02.829Z,9.30
2023-04-25T03:33:29.533Z,9.30
2023-04-25T03:35:56.299Z,9.30
2023-04-25T03:38:23.058Z,9.30
2023-04-25T03:40:51.658Z,9.20
2023-04-25T03:43:18.709Z,9.30
2023-04-25T03:45:45.453Z,9.30
2023-04-25T03:48:12.545Z,9.30
2023-04-25T03:50:39.219Z,9.30
2023-04-25T03:53:05.966Z,10.10
2023-04-25T03:55:32.856Z,9.30
2023-04-25T03:57:59.975Z,9.30
2023-04-25T04:00:26.845Z,9.30
2023-04-25T04:02:53.842Z,10.50
2023-04-25T04:05:20.774Z,9.30
2023-04-25T04:07:47.587Z,9.30
2023-04-25T04:10:14.306Z,10.40
2023-04-25T04:12:41.308Z,9.30
2023-04-25T04:15:08.762Z,9.30
2023-04-25T04:17:35.799Z,9.40
2023-04-25T04:20:04.468Z,9.40
2023-04-25T04:22:31.257Z,9.30
2023-04-25T04:24:57.969Z,9.40
2023-04-25T04:27:24.758Z,9.40
2023-04-25T04:29:53.317Z,9.40
2023-04-25T04:32:20.040Z,9.40
2023-04-25T04:34:48.392Z,11.10
2023-04-25T04:37:15.759Z,9.40
2023-04-25T04:39:42.603Z,9.40
2023-04-25T04:42:09.695Z,9.40
2023-04-25T04:44:36.502Z,9.40
2023-04-25T04:47:07.217Z,9.40
2023-04-25T04:49:34.112Z,9.40
2023-04-25T04:52:01.872Z,9.50
2023-04-25T04:54:28.629Z,9.50
2023-04-25T04:56:55.621Z,10.80
2023-04-25T04:59:22.582Z,9.50
2023-04-25T05:01:49.320Z,10.50
2023-04-25T05:04:16.204Z,9.60
2023-04-25T05:06:43.023Z,9.70
2023-04-25T05:09:09.746Z,9.70
2023-04-25T05:11:36.632Z,9.70
2023-04-25T05:14:03.791Z,11.60
2023-04-25T05:16:30.924Z,9.80
2023-04-25T05:18:57.687Z,9.80
2023-04-25T05:21:24.461Z,10.40
2023-04-25T05:23:51.389Z,9.90
2023-04-25T05:26:18.241Z,10.80
2023-04-25T05:28:44.994Z,9.90
2023-04-25T05:31:11.797Z,9.90
2023-04-25T05:33:38.575Z,9.80
2023-04-25T05:36:05.668Z,9.80
2023-04-25T05:38:34.646Z,9.80
2023-04-25T05:41:01.932Z,9.80
2023-04-25T05:43:28.998Z,10.70
2023-04-25T05:45:55.819Z,10.80
2023-04-25T05:48:22.700Z,9.80
2023-04-25T05:50:49.419Z,10.00
2023-04-25T05:53:16.122Z,9.90
2023-04-25T05:55:42.946Z,9.90
2023-04-25T05:58:09.650Z,11.50
2023-04-25T06:00:36.482Z,9.90
2023-04-25T06:03:03.527Z,10.00
2023-04-25T06:05:30.835Z,10.00
2023-04-25T06:07:57.735Z,11.80
2023-04-25T06:10:24.406Z,11.30
2023-04-25T06:12:51.082Z,10.20
2023-04-25T06:15:28.118Z,10.30
2023-04-25T06:17:55.958Z,10.40
2023-04-25T06:20:25.093Z,12.00
2023-04-25T06:22:54.809Z,10.50
2023-04-25T06:25:22.035Z,11.50
2023-04-25T06:27:48.808Z,10.70
2023-04-25T06:30:16.207Z,10.70
2023-04-25T06:32:42.990Z,10.70
2023-04-25T06:35:10.041Z,10.80
2023-04-25T06:37:36.709Z,10.70
2023-04-25T06:40:03.687Z,10.80
2023-04-25T06:42:30.454Z,10.70
2023-04-25T06:44:57.179Z,12.40
2023-04-25T06:47:23.968Z,10.70
2023-04-25T06:49:51.044Z,10.80
2023-04-25T06:52:19.072Z,10.60
2023-04-25T06:54:46.281Z,10.60
2023-04-25T06:57:13.127Z,10.60
2023-04-25T06:59:39.972Z,10.60
2023-04-25T07:02:07.098Z,10.60
2023-04-25T07:04:34.114Z,10.60
2023-04-25T07:07:03.604Z,11.10
2023-04-25T07:09:30.943Z,12.30
2023-04-25T07:11:57.697Z,10.40
2023-04-25T07:14:25.027Z,11.00
2023-04-25T07:16:51.806Z,10.40
2023-04-25T07:19:18.496Z,10.40
2023-04-25T07:21:45.196Z,10.50
2023-04-25T07:24:11.963Z,10.40
2023-04-25T07:26:38.624Z,11.20
2023-04-25T07:29:05.872Z,11.20
2023-04-25T07:31:32.597Z,10.20
2023-04-25T07:34:01.767Z,10.20
2023-04-25T07:36:28.942Z,10.80
2023-04-25T07:38:55.795Z,10.20
2023-04-25T07:41:22.520Z,10.20
2023-04-25T07:43:49.488Z,10.10
2023-04-25T07:46:16.269Z,10.10
2023-04-25T07:48:43.004Z,10.10
2023-04-25T07:51:09.947Z,10.00
2023-04-25T07:53:38.576Z,10.00
2023-04-25T07:56:05.649Z,10.00
2023-04-25T07:58:32.497Z,10.00
2023-04-25T08:00:59.241Z,9.90
2023-04-25T08:03:26.370Z,11.00
2023-04-25T08:05:53.445Z,10.00
2023-04-25T08:08:20.263Z,10.20
2023-04-25T08:10:49.015Z,10.30
2023-04-25T08:13:15.975Z,10.40
2023-04-25T08:15:42.882Z,11.40
2023-04-25T08:18:09.755Z,11.90
2023-04-25T08:20:36.775Z,12.00
2023-04-25T08:23:03.589Z,10.30
2023-04-25T08:25:30.309Z,10.20
2023-04-25T08:27:58.301Z,11.30
2023-04-25T08:30:25.061Z,10.20
2023-04-25T08:32:52.105Z,10.30
2023-04-25T08:35:19.156Z,10.30
2023-04-25T08:37:45.915Z,10.20
2023-04-25T08:40:16.945Z,10.10
2023-04-25T08:42:44.031Z,9.90
2023-04-25T08:45:11.523Z,9.80
2023-04-25T08:47:40.927Z,9.70
2023-04-25T08:50:08.256Z,9.70
2023-04-25T08:52:44.879Z,9.70
2023-04-25T08:55:13.685Z,10.60
2023-04-25T08:57:43.843Z,9.60
2023-04-25T09:00:13.424Z,9.60
2023-04-25T09:02:41.358Z,9.60
2023-04-25T09:05:10.800Z,9.60
2023-04-25T09:07:37.827Z,9.50
2023-04-25T09:10:04.972Z,9.50
2023-04-25T09:12:32.757Z,9.50
2023-04-25T09:15:11.423Z,10.50
2023-04-25T09:17:41.658Z,9.40
2023-04-25T09:20:13.581Z,9.70
2023-04-25T09:22:40.378Z,9.40
2023-04-25T09:25:16.947Z,9.40
2023-04-25T09:27:53.955Z,9.50
2023-04-25T09:30:31.333Z,9.60
2023-04-25T09:33:04.616Z,9.70
2023-04-25T09:35:40.186Z,9.80
2023-04-25T09:38:12.120Z,9.90
2023-04-25T09:40:47.563Z,9.90
2023-04-25T09:43:24.946Z,9.90
2023-04-25T09:45:54.722Z,9.90
2023-04-25T09:48:23.216Z,9.80
2023-04-25T09:51:10.612Z,9.70
2023-04-25T09:53:39.887Z,9.70
2023-04-25T09:56:08.794Z,10.30
2023-04-25T09:58:37.032Z,9.50
2023-04-25T10:01:08.770Z,10.80
2023-04-25T10:03:37.947Z,10.10
2023-04-25T10:06:09.441Z,9.10
2023-04-25T10:08:37.201Z,9.00
2023-04-25T10:11:06.167Z,10.20
2023-04-25T10:13:33.888Z,8.90
2023-04-25T10:16:03.038Z,8.90
2023-04-25T10:18:31.013Z,8.80
2023-04-25T10:21:00.447Z,8.80
2023-04-25T10:23:28.554Z,9.50
2023-04-25T10:25:55.807Z,10.30
2023-04-25T10:28:22.668Z,10.00
2023-04-25T10:30:59.333Z,8.90
2023-04-25T10:33:40.892Z,8.90
2023-04-25T10:36:24.119Z,9.70
2023-04-25T10:38:52.120Z,9.00
2023-04-25T10:41:20.704Z,9.10
2023-04-25T10:43:49.027Z,9.60
2023-04-25T10:46:31.804Z,9.40
2023-04-25T10:49:01.046Z,9.60
2023-04-25T10:51:43.379Z,9.60
2023-04-25T10:54:21.236Z,9.60
2023-04-25T10:56:50.257Z,9.60
2023-04-25T10:59:22.480Z,9.50
2023-04-25T11:01:53.943Z,9.50
2023-04-25T11:04:22.276Z,9.40
2023-04-25T11:07:10.277Z,9.40
2023-04-25T11:09:40.048Z,9.40
2023-04-25T11:12:09.866Z,9.90
2023-04-25T11:14:37.320Z,9.40
2023-04-25T11:17:04.258Z,9.40
2023-04-25T11:19:31.500Z,9.40
2023-04-25T11:22:02.703Z,10.60
2023-04-25T11:24:30.066Z,10.40
2023-04-25T11:26:57.711Z,9.40
2023-04-25T11:29:27.443Z,9.40
2023-04-25T11:31:58.920Z,9.30
2023-04-25T11:34:26.943Z,9.20
2023-04-25T11:36:54.312Z,10.30
2023-04-25T11:39:21.757Z,9.20
2023-04-25T11:41:48.823Z,10.60
2023-04-25T11:44:19.395Z,9.10
2023-04-25T11:46:46.959Z,10.20
2023-04-25T11:49:15.561Z,9.00
2023-04-25T11:51:44.493Z,9.00
2023-04-25T11:54:12.829Z,9.00
2023-04-25T11:56:43.716Z,9.00
2023-04-25T11:59:11.381Z,10.00
2023-04-25T12:01:41.029Z,8.90
2023-04-25T12:04:15.934Z,9.00
2023-04-25T12:06:44.490Z,9.20
2023-04-25T12:09:14.026Z,9.30
2023-04-25T12:11:54.326Z,10.90
2023-04-25T12:14:29.199Z,9.40
2023-04-25T12:16:58.857Z,11.20
2023-04-25T12:19:27.009Z,9.40
2023-04-25T12:21:58.543Z,9.40
2023-04-25T12:24:28.336Z,9.30
2023-04-25T12:27:02.351Z,9.40
2023-04-25T12:29:38.291Z,9.30
2023-04-25T12:32:14.999Z,9.30
2023-04-25T12:34:41.954Z,9.20
2023-04-25T12:37:08.672Z,9.10
2023-04-25T12:39:35.603Z,9.10
2023-04-25T12:42:02.366Z,9.10
2023-04-25T12:44:29.043Z,9.00
2023-04-25T12:46:56.618Z,9.00
2023-04-25T12:49:24.624Z,9.10
2023-04-25T12:51:52.658Z,9.10
2023-04-25T12:54:19.376Z,9.10
2023-04-25T12:56:47.283Z,9.00
2023-04-25T12:59:14.020Z,9.00
2023-04-25T13:01:40.894Z,8.90
2023-04-25T13:04:07.757Z,8.90
2023-04-25T13:06:34.529Z,8.90
2023-04-25T13:09:01.376Z,8.80
2023-04-25T13:11:28.102Z,8.70
2023-04-25T13:13:54.920Z,8.60
2023-04-25T13:16:22.518Z,10.30
2023-04-25T13:18:49.790Z,8.50
2023-04-25T13:21:16.553Z,8.60
2023-04-25T13:23:47.600Z,8.60
2023-04-25T13:26:14.469Z,8.50
2023-04-25T13:28:43.561Z,8.50
2023-04-25T13:31:12.011Z,8.50
2023-04-25T13:33:38.790Z,8.60
2023-04-25T13:36:06.681Z,8.60
2023-04-25T13:38:33.649Z,8.60
2023-04-25T13:41:00.600Z,8.60
2023-04-25T13:43:27.343Z,8.60
2023-04-25T13:45:54.128Z,8.70
2023-04-25T13:48:21.288Z,8.90
2023-04-25T13:50:48.059Z,8.90
2023-04-25T13:53:14.737Z,8.90
2023-04-25T13:55:41.474Z,8.90
2023-04-25T13:58:09.059Z,9.30
2023-04-25T14:00:40.509Z,10.20
2023-04-25T14:03:09.330Z,8.70
2023-04-25T14:05:40.920Z,9.70
2023-04-25T14:08:08.246Z,8.60
2023-04-25T14:10:35.745Z,8.50
2023-04-25T14:13:04.363Z,8.40
2023-04-25T14:15:34.598Z,8.40
2023-04-25T14:18:02.203Z,8.30
2023-04-25T14:20:29.429Z,8.30
2023-04-25T14:22:58.054Z,8.40
2023-04-25T14:25:25.451Z,8.40
2023-04-25T14:27:52.684Z,8.40
2023-04-25T14:30:21.399Z,8.50
2023-04-25T14:32:49.766Z,10.00
2023-04-25T14:35:16.849Z,8.70
2023-04-25T14:37:43.662Z,8.80
2023-04-25T14:40:11.744Z,8.80
2023-04-25T14:42:38.760Z,8.70
2023-04-25T14:45:08.297Z,8.70
2023-04-25T14:47:35.877Z,8.60
2023-04-25T14:50:03.217Z,8.60
2023-04-25T14:52:30.194Z,8.60
2023-04-25T14:54:57.159Z,8.60
2023-04-25T14:57:23.874Z,9.00
2023-04-25T14:59:50.567Z,8.60
2023-04-25T15:02:17.362Z,8.60
2023-04-25T15:04:44.387Z,8.60
2023-04-25T15:07:11.345Z,8.60
2023-04-25T15:09:38.086Z,8.60
2023-04-25T15:12:05.115Z,9.10
2023-04-25T15:14:32.247Z,8.90
2023-04-25T15:16:59.056Z,8.90
2023-04-25T15:19:25.944Z,8.80
2023-04-25T15:21:52.735Z,8.80
2023-04-25T15:24:19.593Z,8.70
2023-04-25T15:26:46.976Z,8.60
2023-04-25T15:29:13.918Z,9.30
2023-04-25T15:31:40.637Z,8.40
2023-04-25T15:34:07.444Z,10.00
2023-04-25T15:36:34.185Z,8.30
2023-04-25T15:39:00.950Z,9.70
2023-04-25T15:41:27.670Z,8.30
2023-04-25T15:43:54.983Z,8.20
2023-04-25T15:46:24.656Z,8.20
2023-04-25T15:48:51.705Z,9.70
2023-04-25T15:51:18.436Z,8.10
2023-04-25T15:53:45.328Z,8.10
2023-04-25T15:56:12.030Z,8.10
2023-04-25T15:58:38.718Z,8.00
2023-04-25T16:01:05.575Z,8.00
2023-04-25T16:03:34.473Z,7.90
2023-04-25T16:06:03.094Z,8.00
2023-04-25T16:08:34.161Z,8.00
2023-04-25T16:11:01.306Z,8.00
2023-04-25T16:13:30.290Z,8.10
2023-04-25T16:15:57.797Z,8.10
2023-04-25T16:18:24.744Z,8.10
2023-04-25T16:20:51.535Z,8.10
2023-04-25T16:23:18.753Z,8.10
2023-04-25T16:25:45.859Z,8.10
2023-04-25T16:28:12.747Z,8.10
2023-04-25T16:30:39.607Z,8.10
2023-04-25T16:33:06.341Z,8.00
2023-04-25T16:35:33.261Z,9.30
2023-04-25T16:38:01.022Z,9.10
2023-04-25T16:40:27.849Z,8.00
2023-04-25T16:42:54.637Z,8.00
2023-04-25T16:45:21.901Z,8.10
2023-04-25T16:47:48.901Z,8.10
2023-04-25T16:50:16.613Z,8.10
2023-04-25T16:52:44.634Z,8.00
2023-04-25T16:55:11.578Z,8.00
2023-04-25T16:57:38.331Z,9.10
2023-04-25T17:00:06.781Z,8.20
2023-04-25T17:02:33.622Z,8.20
2023-04-25T17:05:00.490Z,8.10
2023-04-25T17:07:27.893Z,8.00
2023-04-25T17:09:54.699Z,8.10
2023-04-25T17:12:21.827Z,8.10
2023-04-25T17:14:49.963Z,8.10
2023-04-25T17:17:18.840Z,8.20
2023-04-25T17:19:46.564Z,8.00
2023-04-25T17:22:13.449Z,8.00
2023-04-25T17:24:40.794Z,7.90
2023-04-25T17:27:08.397Z,7.90
2023-04-25T17:29:35.470Z,7.90
2023-04-25T17:32:03.464Z,7.90
2023-04-25T17:34:31.814Z,7.90
2023-04-25T17:36:58.743Z,7.90
2023-04-25T17:39:25.675Z,8.40
2023-04-25T17:41:52.845Z,7.80
2023-04-25T17:44:19.584Z,7.80
2023-04-25T17:46:46.447Z,7.80
2023-04-25T17:49:13.608Z,7.90
2023-04-25T17:51:40.841Z,7.80
2023-04-25T17:54:08.612Z,7.80
2023-04-25T17:56:39.599Z,7.80
2023-04-25T17:59:07.146Z,7.70
2023-04-25T18:01:34.021Z,7.60
2023-04-25T18:04:01.742Z,7.50
2023-04-25T18:06:29.355Z,7.50
2023-04-25T18:08:57.371Z,7.40
2023-04-25T18:11:25.153Z,7.30
2023-04-25T18:13:52.242Z,7.30
2023-04-25T18:16:20.678Z,7.30
2023-04-25T18:18:53.696Z,7.20
2023-04-25T18:21:20.982Z,7.20
2023-04-25T18:23:47.867Z,7.10
2023-04-25T18:26:15.991Z,7.00
2023-04-25T18:28:43.147Z,6.90
2023-04-25T18:31:10.529Z,6.80
2023-04-25T18:33:37.250Z,6.70
2023-04-25T18:36:04.293Z,6.70
2023-04-25T18:38:35.853Z,6.60
2023-04-25T18:41:26.963Z,6.50
2023-04-25T18:43:51.914Z,6.50
2023-04-25T18:46:22.477Z,6.40
2023-04-25T18:48:51.767Z,6.30
2023-04-25T18:51:19.503Z,6.30
2023-04-25T18:53:46.904Z,6.20
2023-04-25T18:56:15.046Z,6.20
2023-04-25T18:58:42.779Z,7.50
2023-04-25T19:01:10.840Z,7.30
2023-04-25T19:03:38.292Z,7.20
2023-04-25T19:06:05.636Z,6.10
2023-04-25T19:08:32.487Z,6.00
2023-04-25T19:11:07.699Z,6.00
2023-04-25T19:13:41.639Z,6.00
2023-04-25T19:16:09.116Z,5.90
2023-04-25T19:18:36.108Z,6.00
2023-04-25T19:21:05.567Z,6.00
2023-04-25T19:23:33.176Z,6.00
2023-04-25T19:26:00.891Z,6.00
2023-04-25T19:28:29.521Z,6.00
2023-04-25T19:30:57.875Z,6.00
2023-04-25T19:33:24.915Z,6.00
2023-04-25T19:35:52.119Z,6.10
2023-04-25T19:38:19.195Z,6.10
2023-04-25T19:40:46.317Z,6.10
2023-04-25T19:43:13.912Z,7.20
2023-04-25T19:45:40.928Z,6.20
2023-04-25T19:48:10.396Z,6.20
2023-04-25T19:50:37.498Z,6.10
2023-04-25T19:53:04.756Z,6.10
2023-04-25T19:55:32.355Z,6.10
2023-04-25T19:58:03.981Z,6.10
2023-04-25T20:00:35.137Z,6.10
2023-04-25T20:03:03.054Z,6.10
2023-04-25T20:05:34.264Z,6.10
2023-04-25T20:08:01.181Z,6.10
2023-04-25T20:10:35.045Z,6.10
2023-04-25T20:13:02.932Z,6.00
2023-04-25T20:15:32.635Z,6.00
2023-04-25T20:18:00.169Z,6.00
2023-04-25T20:20:28.118Z,6.00
2023-04-25T20:22:55.669Z,6.00
2023-04-25T20:25:26.138Z,6.00
2023-04-25T20:27:52.970Z,6.00
2023-04-25T20:30:23.335Z,6.00
2023-04-25T20:32:50.443Z,6.00
2023-04-25T20:35:17.561Z,6.00
2023-04-25T20:37:44.438Z,6.00
2023-04-25T20:40:12.215Z,6.20
2023-04-25T20:42:39.097Z,5.90
2023-04-25T20:45:07.995Z,5.90
2023-04-25T20:47:39.278Z,5.90
2023-04-25T20:50:07.567Z,5.90
2023-04-25T20:52:35.623Z,5.80
2023-04-25T20:55:02.510Z,5.80
2023-04-25T20:57:29.433Z,5.80
2023-04-25T20:59:57.583Z,5.70
2023-04-25T21:02:24.554Z,5.60
2023-04-25T21:04:51.889Z,5.50
2023-04-25T21:07:19.356Z,5.50
2023-04-25T21:09:49.742Z,5.40
2023-04-25T21:12:16.895Z,5.40
2023-04-25T21:14:43.731Z,5.40
2023-04-25T21:17:13.947Z,5.30
2023-04-25T21:19:44.337Z,5.30
2023-04-25T21:22:11.772Z,5.20
2023-04-25T21:24:38.829Z,5.20
2023-04-25T21:27:05.773Z,5.20
2023-04-25T21:29:33.124Z,5.10
2023-04-25T21:32:00.990Z,5.00
2023-04-25T21:34:28.032Z,5.00
2023-04-25T21:36:58.439Z,4.90
2023-04-25T21:39:25.947Z,4.90
2023-04-25T21:41:53.056Z,4.90
2023-04-25T21:44:20.192Z,4.80
2023-04-25T21:46:51.293Z,4.90
2023-04-25T21:49:18.677Z,4.80
2023-04-25T21:51:45.868Z,4.80
2023-04-25T21:54:13.082Z,4.80
2023-04-25T21:56:43.965Z,4.80
2023-04-25T21:59:10.956Z,4.80
2023-04-25T22:01:38.950Z,4.80
2023-04-25T22:04:10.453Z,4.90
2023-04-25T22:06:37.607Z,4.90
2023-04-25T22:09:08.248Z,5.00
2023-04-25T22:11:40.696Z,5.00
2023-04-25T22:14:08.138Z,5.00
2023-04-25T22:16:35.399Z,5.10
2023-04-25T22:19:05.899Z,5.10
2023-04-25T22:21:33.069Z,5.20
2023-04-25T22:24:00.308Z,5.30
2023-04-25T22:26:27.345Z,5.70
2023-04-25T22:28:54.637Z,5.30
2023-04-25T22:31:22.098Z,5.30
2023-04-25T22:33:49.243Z,5.30
2023-04-25T22:36:18.009Z,5.20
2023-04-25T22:38:45.245Z,6.60
2023-04-25T22:41:12.267Z,5.30
2023-04-25T22:43:42.236Z,5.20
2023-04-25T22:46:19.287Z,5.20
2023-04-25T22:48:47.757Z,5.20
2023-04-25T22:51:15.815Z,5.20
2023-04-25T22:53:43.255Z,5.20
2023-04-25T22:56:10.477Z,5.10
2023-04-25T22:58:38.512Z,5.10
2023-04-25T23:01:09.790Z,5.10
2023-04-25T23:03:36.813Z,5.10
2023-04-25T23:06:04.318Z,5.10
2023-04-25T23:08:31.616Z,5.10
2023-04-25T23:10:58.753Z,5.10
2023-04-25T23:13:32.134Z,5.00
2023-04-25T23:16:09.135Z,5.10
2023-04-25T23:18:37.152Z,5.10
2023-04-25T23:21:04.829Z,5.10
2023-04-25T23:23:32.430Z,5.10
2023-04-25T23:25:59.471Z,5.10
2023-04-25T23:28:26.799Z,5.10
2023-04-25T23:30:53.808Z,5.10
2023-04-25T23:33:20.805Z,5.10
2023-04-25T23:35:48.039Z,5.00
2023-04-25T23:38:16.891Z,5.00
2023-04-25T23:40:43.996Z,5.00
2023-04-25T23:43:12.479Z,4.90
2023-04-25T23:45:40.387Z,4.90
2023-04-25T23:48:07.740Z,5.00
2023-04-25T23:50:34.729Z,4.90
2023-04-25T23:53:02.452Z,4.90
2023-04-25T23:55:32.745Z,4.80
2023-04-25T23:58:03.776Z,4.80
